UPDATE or REFRESH or RELOAD each time you view race results!

The  Belmont 16ft Sailing Club Ltd  Presents

Results by : TopYacht Software

Race 1   [28/12/2011]   updated on :  28/12/2011  5:56:11 PM

Cadets 2011-2012 Invitational

OTB results Start : 14:25:00
Place Sail No Boat Name From Elapsd YS Cor d T Skipper CREW Score Fin Tim Section ETOrd
1 9529 INSAYNE SYC 01:06:32 01:06:32 Jacob Freeman Jonathan Coman 1.0 15:31:32 15/10~M/M 1
2 5637 VAMOOSE SYC 01:07:53 01:07:53 Charlie Rae Patrick Rohan 2.0 15:32:53 15/11~M/M 2
3 9698 WILDCARD RGYC 01:08:53 01:08:53 Liam Robinson Gabe Nolan 3.0 15:33:53 15/14~M/M 3
4 9523 BROTHERS IN ARMS RGYC 01:09:00 01:09:00 Darcy Baranowski Dominic Randall 4.0 15:34:00 15/11~M/M 4
5 9528 ODYSSEY SYC 01:09:10 01:09:10 Jarad Cavanagh Shae Rohan 5.0 15:34:10 16/9~M/F 5
6 9284 MAGOO 2 SYC 01:10:06 01:10:06 Patrick Chipp Jack Furey 6.0 15:35:06 15/12~M/M 6
7 9699 SIROCCO SBSC 01:10:20 01:10:20 Charlie Connor Ethan Galbraith 7.0 15:35:20 16/8~M/M 7
8 9280 UNFINISHED BUSINESS SYC 01:10:21 01:10:21 Alice Endersbee Eliza Davies 8.0 15:35:21 14/14~F/F 8
9 9824 ENDLESS SUMMER PLYC 01:10:47 01:10:47 Amy Perin Marni Lydeamore 9.0 15:35:47 14/13~F/F 9
10 9612 DIRTY HARRY SYC 01:11:21 01:11:21 Angus Rae Zoe Rae 10.0 15:36:21 13/11~M/F 10
11 4109 SNAKEBITE RGYC 01:11:29 01:11:29 William Townson Claire Townson 11.0 15:36:29 12/10~M/F 11
12 9629 WHITE MISSILE RGYC 01:12:00 01:12:00 Nicola Armstrong Emma Kelly 12.0 15:37:00   12
13 5757 STRIKER SYC 01:12:09 01:12:09 Dylan Rohan Lachlan Coman 13.0 15:37:09 14/11~M/M 13
14 9526 HYPER HYPER SYC 01:12:23 01:12:23 Ashley Cavanagh Georgia Wiley 14.0 15:37:23 14/14~F/F 14
15 5509 SAMARAN SYC 01:12:39 01:12:39 Julian Sasson Molly Furey 15.0 15:37:39 13/10~M/F 15
16 9614 TEMPEST RGYC 01:12:58 01:12:58 Olivia Neilson Joel Lay 16.0 15:37:58 13/15~F/M 16
17 5661 REBEL TWO RGYC 01:13:02 01:13:02 Will Newman Nick Manton 17.0 15:38:02 14/20~M/M 17
18 9550 JOLT BSC 01:13:03 01:13:03 Sarah Lawman Robert Donovan 18.0 15:38:03 15/12~F/M 18
19 9424 SHIMMER SBSC 01:13:20 01:13:20 Sam Abel William Cooper 19.0 15:38:20 12/10~M/M 19
20 9621 STEALTH RYCV 01:13:30 01:13:30 Jack Fowler Ryan Croft 20.0 15:38:30 17/101~M/M 20
21 9822 GOODNESS GRACIOUS SYC 01:13:35 01:13:35 Grace Endersbee Courtney Perryman 21.0 15:38:35 14/14~F/F 21
22 9628 IT'S PINK! RGYC 01:13:38 01:13:38 Emily Goodfellow Lachlan Hill 22.0 15:38:38 14/10~F/M 22
23 9744 SHADOW LBSC 01:14:01 01:14:01 Jalina Thompson-Kamb Starr Thompson 23.0 15:39:01 15/11~F/F 23
24 9281 HIGH CALIBRE PLYC 01:14:08 01:14:08 Lauren Henderson Alissa Kelsey 24.0 15:39:08 13/11~F/F 24
25 5494 RUSTLER BSC 01:14:21 01:14:21 Stuart Plenderleith Oscar O'Brien 25.0 15:39:21 13/10~M/M 25
26 9559 RESISTANCE RGYC 01:14:50 01:14:50 Riley Mulgrew Oliver Manton 26.0 15:39:50 14/12~M/M 26
27 5758 WILD THING SBSC 01:14:56 01:14:56 Thomas Cooper Angus Price 27.0 15:39:56   27
28 9821 SIBERIAN TIGER RGYC 01:15:07 01:15:07 Sam Stephens Nathan Field 28.0 15:40:07 15/10~M/M 28
29 9747 LIFE TO THE XTREME PLYC 01:15:10 01:15:10 Georgina Hughes Elsie Kenny 29.0 15:40:10 14/14~F/F 29
30 5663 REDPATH RGYC 01:15:30 01:15:30 Georgia Randall Matthew Eid 30.0 15:40:30 14/9~F/M 30
31 9527 MUSTANG SALLY RYCV 01:15:37 01:15:37 Jacqueline Prestedge Callum Girvin 31.0 15:40:37 14/12~F/M 31
32 9626 CLAREBUOYANT RYCV 01:16:18 01:16:18 Clare Olding Patrick De Koster 32.0 15:41:18 11/11~F/M 32
33 9777 X-T-SEA RGYC 01:16:35 01:16:35 Billy Goodfellow Joshua Hill 33.0 15:41:35 12/101~M/M 33
34 5700 SIDEWINDER RYCV 01:16:58 01:16:58 Louis Schofield Max Knell 34.0 15:41:58 12/12~M/M 34
35 9524 KING GEORGE RYCV 01:17:19 01:17:19 Phillipah Miller Lucy Fowler 35.0 15:42:19 14/14~F/F 35
36 9426 CRAZY BSC 01:17:34 01:17:34 Tristan O'Brien Ella Gray 36.0 15:42:34 15/9~M/F 36
37 4690 SAILMAKER RYCV 01:17:47 01:17:47 Ben Wilson Ryan Cambell 37.0 15:42:47 15/13~M/M 37
38 4881 PIRANHA BSC 01:17:57 01:17:57 Charlotte Gray Mackenzie Gray 38.0 15:42:57 14/12~F/M 38
39 9611 HOLD ON RYCV 01:17:59 01:17:59 Harrison Croft James Black 39.0 15:42:59 15/13~M/M 39
40 5740 RECOIL BSC 01:18:10 01:18:10 James Burley-Jukes Charlotte Rogers 40.0 15:43:10 14/12~M/F 40
41 9287 CORINTHIAN BSC 01:18:54 01:18:54 Fenella Obrien Toby Burley-Jukes 41.0 15:43:54 14/11~F/M 41
42 9616 CHECKMATE RGYC 01:19:25 01:19:25 Thomas Alexander Dexter Hare-Zen 42.0 15:44:25 13/101~M/M 42
43 5752 IMP RGYC 01:19:26 01:19:26 Aimee Altermatt Ryu Mayumi 43.0 15:44:26 14/14~F/F 43
44 9561 WINNING EDGE SBSC 01:20:01 01:20:01 Toby Burnell Poppy Newton 44.0 15:45:01 13/10~M/M 44
45 9617 BULLANT RYCV 01:20:35 01:20:35 Michael Johnson Eamon Zappia 45.0 15:45:35 13/13~M/M 45
46 5616 LOQUACIOUS SYC 01:23:42 01:23:42 Brooke Robson Zoe Wiley 46.0 15:48:42 12/101~F/n 46
47 5501 WASABI BSC 01:24:34 01:24:34 Luke Bogatez Matthew Ackery 47.0 15:49:34 12/12~M/M 47
48 6969 BRIDGEWICK FARM RYCV 01:27:16 01:27:16 Lucy Fowler Wynn Schofield 48.0 15:52:16 14/9~F/M 48
DNC 8931 MIDNIGHT MAGIC RGYC     Charlie Friend Ben Townson 61.0   14/14~M/F  
DNC 9620 BLITZ~EM BSC     Ryan Bogatez Mark Donovan 61.0   13/12~M/M  
DNF 4118 SKEETA RGYC     Oliver Friend Jasper Cartwright 61.0   16/12~M/M  
DNF 5489 DELTA BSC     Vicki Waldock Hannah Miller 61.0   13/13~F/F  
DNF 5636 TRUMP CARD BMYC     Kurt Braden Zac Braden 61.0   13/9~M/M  
DNF 9823 LEAP FROG RGYC     Lucy Stephens Alanna Field 61.0   15/12~F/n  
OCS 5653 MANXMAN RYCV     Brodie Roberts Callum Prestedge 61.0   15/13~M/M  
OCS 9520 DROP BEARS SBSC     William Connor Callum Ingram 61.0   14/101~M/M  
OCS 9531 PHOENIX SBSC     Sam Tiedemann Chloe Abel 61.0   15/9~M/F  
OCS 9552 EXECUTIONER SBSC     Silas Hamilton Rupert Hamilton 61.0   13/9~M/M  
OCS 9562 MELTEMI SBSC     Oliver Burnell Issie De Clerk 61.0   14/11~M/F  
OCS 9778 IMPULSE SBSC     Samantha Bailey Hannah Chadwick 61.0   14/12~F/M